Time;durP1;ratioP1;P1;durP2;ratioP2;P2;SDS_P1;SDS_P2;PMS_P1;PMS_P2;Temp;Humidity;BMP_temperature;BMP_pressure;BME280_temperature;BME280_humidity;BME280_pressure;Samples;Min_cycle;Max_cycle;Signal;HPM_P1;HPM_P2
2022/06/07 00:00:41;;;;;;;;;;;13.00;99.90;;;;;;5032653;28;19916;-73
2022/06/07 00:03:08;;;;;;;;;;;13.00;99.90;;;;;;5032913;28;20017;-74
2022/06/07 00:05:34;;;;;;;;;;;13.10;99.90;;;;;;5032834;28;19913;-74
2022/06/07 00:08:02;;;;;;;;;;;13.10;99.90;;;;;;5032931;28;20214;-73
2022/06/07 00:10:29;;;;;;;;;;;13.20;99.90;;;;;;5032974;28;19913;-74
2022/06/07 00:12:55;;;;;;;;;;;13.20;99.90;;;;;;5032747;28;19999;-74
2022/06/07 00:15:22;;;;;;;;;;;13.10;99.90;;;;;;5032644;28;19909;-73
2022/06/07 00:17:49;;;;;;;;;;;13.20;99.90;;;;;;5032715;28;19916;-74
2022/06/07 00:20:16;;;;;;;;;;;13.40;99.90;;;;;;5032730;28;19971;-73
2022/06/07 00:22:42;;;;;;;;;;;13.40;99.90;;;;;;5032686;28;19917;-73
2022/06/07 00:25:10;;;;;;;;;;;13.50;99.90;;;;;;5032469;28;20003;-73
2022/06/07 00:27:37;;;;;;;;;;;13.50;99.90;;;;;;5032457;28;19916;-74
2022/06/07 00:30:05;;;;;;;;;;;13.60;99.90;;;;;;5032529;28;19910;-73
2022/06/07 00:32:32;;;;;;;;;;;13.50;99.90;;;;;;5032352;28;20276;-73
2022/06/07 00:34:58;;;;;;;;;;;13.60;99.90;;;;;;5012286;28;19914;-73
2022/06/07 00:37:25;;;;;;;;;;;13.60;99.90;;;;;;4996286;28;19973;-72
2022/06/07 00:39:52;;;;;;;;;;;13.70;99.50;;;;;;4992337;28;19917;-72
2022/06/07 00:42:19;;;;;;;;;;;13.70;99.40;;;;;;4992262;28;20249;-72
2022/06/07 00:44:46;;;;;;;;;;;13.70;99.90;;;;;;4992215;28;20009;-72
2022/06/07 00:47:17;;;;;;;;;;;13.70;99.90;;;;;;4992527;28;20279;-72
2022/06/07 00:49:59;;;;;;;;;;;13.90;99.90;;;;;;4993560;28;19909;-73
2022/06/07 00:52:27;;;;;;;;;;;14.10;99.90;;;;;;4995697;28;19922;-73
2022/06/07 00:54:55;;;;;;;;;;;14.10;99.90;;;;;;4995992;28;20013;-72
2022/06/07 00:57:22;;;;;;;;;;;14.20;99.00;;;;;;4995786;28;19945;-72
2022/06/07 00:59:51;;;;;;;;;;;14.40;98.70;;;;;;4995169;28;19916;-72
2022/06/07 01:02:18;;;;;;;;;;;14.60;98.00;;;;;;4995827;28;20388;-73
2022/06/07 01:04:45;;;;;;;;;;;14.70;97.90;;;;;;4995689;28;20000;-73
2022/06/07 01:12:41;;;;;;;;;;;15.50;97.30;;;;;;5025466;28;19917;-73
2022/06/07 01:15:08;;;;;;;;;;;15.80;97.00;;;;;;5035486;28;19910;-73
2022/06/07 01:17:35;;;;;;;;;;;15.90;96.40;;;;;;5035401;28;19964;-73
2022/06/07 01:20:02;;;;;;;;;;;15.70;96.30;;;;;;5035561;28;20359;-74
2022/06/07 01:22:29;;;;;;;;;;;15.40;96.70;;;;;;5035414;28;19936;-73
2022/06/07 01:24:56;;;;;;;;;;;15.30;97.40;;;;;;5035540;28;19909;-74
2022/06/07 01:27:23;;;;;;;;;;;15.20;97.20;;;;;;5035322;28;19983;-73
2022/06/07 01:29:49;;;;;;;;;;;15.00;97.10;;;;;;5035060;28;19910;-72
2022/06/07 01:32:16;;;;;;;;;;;15.00;97.50;;;;;;5035419;28;20261;-73
2022/06/07 01:34:43;;;;;;;;;;;15.20;97.10;;;;;;5035454;28;19920;-73
2022/06/07 01:37:11;;;;;;;;;;;15.10;96.60;;;;;;5035158;28;20376;-73
2022/06/07 01:42:22;;;;;;;;;;;15.20;97.40;;;;;;5035255;28;20430;-73
2022/06/07 01:44:49;;;;;;;;;;;15.20;96.20;;;;;;5034841;28;19932;-73
2022/06/07 01:47:18;;;;;;;;;;;15.10;96.50;;;;;;5035034;28;19931;-73
2022/06/07 01:49:45;;;;;;;;;;;14.90;96.10;;;;;;5035016;28;19909;-74
2022/06/07 01:52:13;;;;;;;;;;;15.20;96.70;;;;;;5034778;28;19913;-74
2022/06/07 01:54:39;;;;;;;;;;;15.00;95.90;;;;;;5034810;28;19949;-73
2022/06/07 01:57:07;;;;;;;;;;;14.90;96.40;;;;;;5034806;28;20007;-74
2022/06/07 01:59:35;;;;;;;;;;;14.80;96.60;;;;;;5034163;28;20421;-74
2022/06/07 02:02:02;;;;;;;;;;;14.80;96.70;;;;;;5033480;28;19917;-74
2022/06/07 02:04:29;;;;;;;;;;;14.80;96.70;;;;;;5034581;28;19916;-74
2022/06/07 02:06:55;;;;;;;;;;;14.90;96.50;;;;;;5034650;28;19909;-74
2022/06/07 02:09:22;;;;;;;;;;;15.10;96.30;;;;;;5034560;28;19945;-74
2022/06/07 02:11:49;;;;;;;;;;;15.10;95.90;;;;;;5034321;28;19909;-74
2022/06/07 02:14:16;;;;;;;;;;;15.10;95.50;;;;;;5034416;28;20271;-75
2022/06/07 02:16:42;;;;;;;;;;;15.00;95.50;;;;;;5034135;28;19915;-73
2022/06/07 02:19:09;;;;;;;;;;;15.10;96.30;;;;;;5034417;28;19909;-73
2022/06/07 02:21:37;;;;;;;;;;;15.10;95.10;;;;;;5034301;28;20011;-74
2022/06/07 02:24:04;;;;;;;;;;;15.00;95.60;;;;;;5034363;28;19920;-74
2022/06/07 02:26:35;;;;;;;;;;;14.80;95.90;;;;;;5034419;28;19952;-75
2022/06/07 02:29:07;;;;;;;;;;;14.70;96.00;;;;;;5034150;28;19909;-74
2022/06/07 02:31:36;;;;;;;;;;;14.70;95.70;;;;;;5033746;28;19909;-74
2022/06/07 02:34:03;;;;;;;;;;;14.60;96.10;;;;;;5033942;28;20004;-74
2022/06/07 02:36:31;;;;;;;;;;;14.70;96.10;;;;;;5033929;28;19916;-74
2022/06/07 02:38:58;;;;;;;;;;;14.60;96.50;;;;;;5034248;28;20003;-75
2022/06/07 02:41:27;;;;;;;;;;;14.60;95.80;;;;;;5033783;28;19962;-76
2022/06/07 02:43:54;;;;;;;;;;;14.60;96.00;;;;;;5033507;28;19913;-76
2022/06/07 02:46:21;;;;;;;;;;;14.50;95.30;;;;;;5033970;28;20007;-75
2022/06/07 02:48:48;;;;;;;;;;;14.70;96.00;;;;;;5033712;28;19909;-75
2022/06/07 02:51:15;;;;;;;;;;;14.70;96.80;;;;;;5033745;28;20134;-75
2022/06/07 02:53:42;;;;;;;;;;;14.60;95.60;;;;;;5033502;28;20062;-74
2022/06/07 02:56:08;;;;;;;;;;;14.70;95.50;;;;;;5033753;28;20000;-74
2022/06/07 02:58:35;;;;;;;;;;;14.70;95.30;;;;;;5033567;28;20348;-75
2022/06/07 03:01:02;;;;;;;;;;;14.80;96.30;;;;;;5033516;28;19913;-75
2022/06/07 03:03:29;;;;;;;;;;;14.90;95.40;;;;;;5033538;28;20339;-74
2022/06/07 03:05:56;;;;;;;;;;;14.90;94.90;;;;;;5033598;28;19913;-74
2022/06/07 03:08:23;;;;;;;;;;;15.00;95.60;;;;;;5033646;28;20394;-75
2022/06/07 03:10:50;;;;;;;;;;;15.00;95.30;;;;;;5033547;28;19951;-75
2022/06/07 03:13:17;;;;;;;;;;;15.00;95.00;;;;;;5033008;28;19916;-74
2022/06/07 03:15:44;;;;;;;;;;;14.90;94.90;;;;;;5032941;28;20375;-74
2022/06/07 03:18:11;;;;;;;;;;;14.90;94.70;;;;;;5033370;28;19913;-73
2022/06/07 03:20:37;;;;;;;;;;;15.10;95.60;;;;;;5033437;28;19909;-75
2022/06/07 03:23:04;;;;;;;;;;;15.10;94.90;;;;;;5033244;28;19924;-75
2022/06/07 03:25:31;;;;;;;;;;;15.00;95.30;;;;;;5033039;28;19909;-74
2022/06/07 03:27:59;;;;;;;;;;;15.00;95.10;;;;;;5033150;28;20524;-75
2022/06/07 03:30:25;;;;;;;;;;;15.00;94.50;;;;;;5033233;28;19909;-75
2022/06/07 03:32:52;;;;;;;;;;;15.00;94.60;;;;;;5033345;28;19910;-76
2022/06/07 03:35:19;;;;;;;;;;;15.00;94.60;;;;;;5033267;28;19913;-75
2022/06/07 03:37:46;;;;;;;;;;;14.90;94.50;;;;;;5032913;28;19909;-73
2022/06/07 03:40:13;;;;;;;;;;;15.00;94.40;;;;;;5032969;28;20023;-75
2022/06/07 03:42:41;;;;;;;;;;;15.00;94.50;;;;;;5032798;28;19924;-75
2022/06/07 03:45:08;;;;;;;;;;;15.00;94.10;;;;;;5033020;28;20364;-75
2022/06/07 03:47:34;;;;;;;;;;;15.00;94.60;;;;;;5032865;28;19944;-75
2022/06/07 03:50:01;;;;;;;;;;;15.00;94.20;;;;;;5033102;28;19956;-74
2022/06/07 03:52:28;;;;;;;;;;;15.00;94.30;;;;;;5032660;28;20402;-74
2022/06/07 03:54:54;;;;;;;;;;;15.00;94.70;;;;;;5033014;28;20004;-75
2022/06/07 03:57:21;;;;;;;;;;;15.00;95.40;;;;;;5033202;28;19916;-74
2022/06/07 03:59:48;;;;;;;;;;;15.10;94.80;;;;;;5032856;28;19952;-75
2022/06/07 04:02:15;;;;;;;;;;;15.10;94.50;;;;;;5033067;28;19917;-74
2022/06/07 04:04:41;;;;;;;;;;;15.10;94.70;;;;;;5032971;28;19988;-76
2022/06/07 04:09:52;;;;;;;;;;;15.10;95.20;;;;;;5032933;28;19916;-75
2022/06/07 04:12:19;;;;;;;;;;;15.10;95.30;;;;;;5032823;28;19988;-73
2022/06/07 04:14:46;;;;;;;;;;;15.10;95.30;;;;;;5032817;28;19909;-75
2022/06/07 04:17:13;;;;;;;;;;;15.10;95.40;;;;;;5032806;28;19994;-75
2022/06/07 04:19:40;;;;;;;;;;;15.00;95.50;;;;;;5032797;28;19963;-75
2022/06/07 04:22:08;;;;;;;;;;;15.00;95.90;;;;;;5032848;28;20023;-75
2022/06/07 04:24:35;;;;;;;;;;;14.90;95.90;;;;;;5033878;28;19909;-75
2022/06/07 04:27:02;;;;;;;;;;;14.80;95.40;;;;;;5036649;28;19909;-75
2022/06/07 04:29:28;;;;;;;;;;;14.90;95.10;;;;;;5036454;28;20379;-75
2022/06/07 04:31:56;;;;;;;;;;;14.90;95.70;;;;;;5036612;28;19909;-75
2022/06/07 04:34:22;;;;;;;;;;;14.90;95.60;;;;;;5036578;28;20000;-76
2022/06/07 04:36:49;;;;;;;;;;;14.90;95.20;;;;;;5036427;28;19995;-77
2022/06/07 04:39:16;;;;;;;;;;;14.90;95.50;;;;;;5051786;28;19916;-76
2022/06/07 04:41:42;;;;;;;;;;;14.90;95.30;;;;;;5036148;28;19917;-76
2022/06/07 04:44:09;;;;;;;;;;;14.90;95.60;;;;;;5036268;28;19916;-75
2022/06/07 04:46:36;;;;;;;;;;;14.80;95.30;;;;;;5036258;28;19988;-75
2022/06/07 04:49:03;;;;;;;;;;;14.80;96.00;;;;;;5036005;28;20356;-75
2022/06/07 04:51:31;;;;;;;;;;;14.90;95.80;;;;;;5035997;28;19956;-75
2022/06/07 04:53:58;;;;;;;;;;;14.80;95.80;;;;;;5035933;28;20330;-76
2022/06/07 04:56:27;;;;;;;;;;;14.90;95.70;;;;;;5036078;28;20283;-75
2022/06/07 04:58:53;;;;;;;;;;;14.80;95.30;;;;;;5035717;28;20008;-74
2022/06/07 05:01:32;;;;;;;;;;;14.80;96.20;;;;;;5035897;28;19913;-75
2022/06/07 05:03:58;;;;;;;;;;;14.80;94.90;;;;;;5036068;28;20012;-76
2022/06/07 05:06:25;;;;;;;;;;;14.80;95.50;;;;;;5018122;28;19952;-76
2022/06/07 05:08:54;;;;;;;;;;;14.70;95.50;;;;;;5035940;28;19909;-75
2022/06/07 05:11:22;;;;;;;;;;;14.70;95.30;;;;;;5035749;28;19915;-77
2022/06/07 05:13:48;;;;;;;;;;;14.70;95.10;;;;;;5035364;28;19955;-76
2022/06/07 05:16:15;;;;;;;;;;;14.70;95.00;;;;;;5035550;28;20288;-76
2022/06/07 05:18:42;;;;;;;;;;;14.70;95.30;;;;;;5035659;28;19955;-76
2022/06/07 05:21:10;;;;;;;;;;;14.70;94.30;;;;;;5035585;28;19913;-76
2022/06/07 05:23:37;;;;;;;;;;;14.70;95.40;;;;;;5035279;28;19918;-76
2022/06/07 05:26:07;;;;;;;;;;;14.70;94.50;;;;;;5035536;28;20349;-75
2022/06/07 05:28:34;;;;;;;;;;;14.70;95.00;;;;;;5035409;28;19948;-75
2022/06/07 05:31:01;;;;;;;;;;;14.70;95.30;;;;;;5035382;28;19910;-76
2022/06/07 05:33:27;;;;;;;;;;;14.70;95.10;;;;;;5035246;28;19909;-75
2022/06/07 05:35:55;;;;;;;;;;;14.60;95.60;;;;;;5035194;28;20344;-76
2022/06/07 05:38:22;;;;;;;;;;;14.60;95.60;;;;;;5035304;28;19909;-75
2022/06/07 05:40:48;;;;;;;;;;;14.60;95.50;;;;;;5034990;28;19909;-75
2022/06/07 05:43:15;;;;;;;;;;;14.50;96.10;;;;;;5034996;28;19952;-76
2022/06/07 05:45:42;;;;;;;;;;;14.40;95.90;;;;;;5035042;28;19961;-76
2022/06/07 05:48:09;;;;;;;;;;;14.40;96.20;;;;;;5035118;28;20430;-76
2022/06/07 05:50:35;;;;;;;;;;;14.40;96.10;;;;;;5035241;28;19953;-76
2022/06/07 05:53:02;;;;;;;;;;;14.40;95.80;;;;;;5034883;28;19921;-75
2022/06/07 05:55:29;;;;;;;;;;;14.40;95.60;;;;;;5034897;28;19995;-76
2022/06/07 05:57:55;;;;;;;;;;;14.30;95.50;;;;;;5034816;28;19910;-75
2022/06/07 06:00:24;;;;;;;;;;;14.30;96.20;;;;;;5034788;28;20376;-75
2022/06/07 06:02:51;;;;;;;;;;;14.30;95.80;;;;;;5034731;28;19956;-76
2022/06/07 06:05:18;;;;;;;;;;;14.30;95.80;;;;;;5034920;28;19948;-76
2022/06/07 06:10:31;;;;;;;;;;;14.20;96.70;;;;;;5013627;28;19992;-75
2022/06/07 06:12:58;;;;;;;;;;;14.20;96.00;;;;;;5034505;28;20257;-73
2022/06/07 06:15:25;;;;;;;;;;;14.10;96.10;;;;;;5034537;28;19933;-75
2022/06/07 06:17:51;;;;;;;;;;;14.10;97.20;;;;;;5034182;28;19916;-75
2022/06/07 06:20:19;;;;;;;;;;;14.00;96.40;;;;;;5034507;28;19909;-76
2022/06/07 06:22:46;;;;;;;;;;;14.00;96.60;;;;;;5034602;28;19921;-75
2022/06/07 06:25:14;;;;;;;;;;;13.90;96.10;;;;;;5034485;28;19910;-76
2022/06/07 06:27:41;;;;;;;;;;;13.90;96.30;;;;;;5034122;28;19916;-75
2022/06/07 06:30:09;;;;;;;;;;;13.90;96.50;;;;;;5034249;28;20363;-75
2022/06/07 06:32:35;;;;;;;;;;;13.70;96.70;;;;;;5034239;28;19963;-75
2022/06/07 06:35:03;;;;;;;;;;;13.70;96.30;;;;;;5033940;28;20352;-75
2022/06/07 06:37:30;;;;;;;;;;;13.70;96.80;;;;;;5034040;28;19913;-75
2022/06/07 06:39:57;;;;;;;;;;;13.70;96.80;;;;;;5034041;28;19909;-74
2022/06/07 06:42:23;;;;;;;;;;;13.60;97.30;;;;;;5033633;28;19928;-74
2022/06/07 06:44:50;;;;;;;;;;;13.60;96.40;;;;;;5033983;28;19916;-74
2022/06/07 06:47:17;;;;;;;;;;;13.50;96.80;;;;;;5033538;28;19909;-74
2022/06/07 06:49:44;;;;;;;;;;;13.50;96.50;;;;;;5033494;28;19913;-73
2022/06/07 06:52:12;;;;;;;;;;;13.50;96.70;;;;;;5031154;28;20291;-73
2022/06/07 06:54:38;;;;;;;;;;;13.50;96.60;;;;;;5031692;28;20261;-74
2022/06/07 06:57:06;;;;;;;;;;;13.40;97.70;;;;;;5031585;28;19917;-74
2022/06/07 06:59:33;;;;;;;;;;;13.40;97.00;;;;;;5031278;28;19909;-74
2022/06/07 07:01:59;;;;;;;;;;;13.40;97.30;;;;;;5031563;28;19917;-75
2022/06/07 07:04:26;;;;;;;;;;;13.30;97.40;;;;;;5030866;28;19913;-73
2022/06/07 07:06:53;;;;;;;;;;;13.30;97.60;;;;;;5031372;28;20055;-74
2022/06/07 07:09:23;;;;;;;;;;;13.30;97.30;;;;;;5031364;28;19924;-74
2022/06/07 07:11:52;;;;;;;;;;;13.30;98.10;;;;;;5031126;28;19920;-74
2022/06/07 07:14:19;;;;;;;;;;;13.20;98.20;;;;;;5031139;28;19919;-75
2022/06/07 07:16:51;;;;;;;;;;;13.20;97.60;;;;;;5030931;28;19909;-74
2022/06/07 07:19:20;;;;;;;;;;;13.20;98.20;;;;;;5030786;28;19914;-74
2022/06/07 07:21:48;;;;;;;;;;;13.10;97.90;;;;;;5030721;28;20406;-75
2022/06/07 07:24:17;;;;;;;;;;;13.10;98.10;;;;;;5030781;28;19913;-74
2022/06/07 07:26:44;;;;;;;;;;;13.10;97.90;;;;;;5031126;28;20663;-74
2022/06/07 07:29:12;;;;;;;;;;;13.10;97.50;;;;;;5030916;28;19982;-73
2022/06/07 07:31:39;;;;;;;;;;;13.00;97.90;;;;;;5030537;28;19913;-75
2022/06/07 07:34:08;;;;;;;;;;;13.00;97.90;;;;;;5030838;28;20004;-74
2022/06/07 07:36:35;;;;;;;;;;;13.00;97.80;;;;;;5030545;28;19909;-75
2022/06/07 07:39:03;;;;;;;;;;;13.00;98.40;;;;;;5031047;28;19917;-74
2022/06/07 07:41:31;;;;;;;;;;;13.00;97.70;;;;;;5030446;28;19975;-74
2022/06/07 07:44:00;;;;;;;;;;;13.00;98.40;;;;;;5030747;28;19953;-73
2022/06/07 07:46:29;;;;;;;;;;;13.00;97.50;;;;;;5030895;28;19914;-74
2022/06/07 07:48:56;;;;;;;;;;;13.00;97.80;;;;;;5030694;28;19940;-73
2022/06/07 07:51:24;;;;;;;;;;;13.00;97.90;;;;;;5030945;28;19945;-74
2022/06/07 07:53:51;;;;;;;;;;;13.00;97.90;;;;;;5030065;28;20023;-74
2022/06/07 07:56:18;;;;;;;;;;;13.10;98.00;;;;;;5030234;28;19917;-73
2022/06/07 07:58:45;;;;;;;;;;;13.10;97.90;;;;;;5030904;28;20323;-73
2022/06/07 08:01:14;;;;;;;;;;;13.10;98.10;;;;;;5034443;28;19913;-74
2022/06/07 08:03:41;;;;;;;;;;;13.10;97.70;;;;;;5034709;28;19913;-74
2022/06/07 08:06:09;;;;;;;;;;;13.00;98.20;;;;;;5034734;28;19909;-72
2022/06/07 08:08:36;;;;;;;;;;;13.10;97.70;;;;;;5034768;28;19913;-73
2022/06/07 08:11:03;;;;;;;;;;;13.10;97.90;;;;;;5034193;28;19917;-75
2022/06/07 08:13:30;;;;;;;;;;;13.10;97.60;;;;;;5034480;28;19920;-73
2022/06/07 08:15:57;;;;;;;;;;;13.10;98.10;;;;;;5034550;28;19913;-74
2022/06/07 08:18:24;;;;;;;;;;;13.10;97.60;;;;;;5035035;28;20287;-73
2022/06/07 08:20:56;;;;;;;;;;;13.10;97.70;;;;;;5034548;28;20437;-74
2022/06/07 08:23:23;;;;;;;;;;;13.00;98.30;;;;;;5034086;28;20008;-73
2022/06/07 08:25:49;;;;;;;;;;;13.00;99.90;;;;;;5033936;28;19909;-74
2022/06/07 08:28:16;;;;;;;;;;;13.00;99.50;;;;;;5034418;28;20256;-72
2022/06/07 08:30:44;;;;;;;;;;;12.90;98.70;;;;;;5007139;28;19924;-73
2022/06/07 08:38:41;;;;;;;;;;;12.80;98.90;;;;;;4998033;28;19917;-73
2022/06/07 08:41:19;;;;;;;;;;;12.80;99.00;;;;;;4994863;28;19910;-73
2022/06/07 08:43:45;;;;;;;;;;;12.80;99.20;;;;;;4977017;28;20311;-73
2022/06/07 08:46:14;;;;;;;;;;;12.80;99.60;;;;;;4995114;28;19921;-73
2022/06/07 08:48:42;;;;;;;;;;;12.70;99.70;;;;;;4995119;28;19932;-73
2022/06/07 08:51:25;;;;;;;;;;;12.60;99.50;;;;;;4994976;28;19910;-73
2022/06/07 08:53:57;;;;;;;;;;;12.60;99.70;;;;;;4993420;28;19961;-72
2022/06/07 08:56:28;;;;;;;;;;;12.50;99.90;;;;;;4993073;28;20594;-73
2022/06/07 08:58:57;;;;;;;;;;;12.50;99.90;;;;;;4975564;28;19914;-73
2022/06/07 09:01:24;;;;;;;;;;;12.40;99.90;;;;;;4993476;28;20107;-73
2022/06/07 09:04:09;;;;;;;;;;;12.30;99.90;;;;;;4993130;28;19994;-73
2022/06/07 09:06:38;;;;;;;;;;;12.30;99.90;;;;;;4994961;28;20280;-73
2022/06/07 09:09:06;;;;;;;;;;;12.20;99.90;;;;;;4995137;28;19996;-73
2022/06/07 09:14:22;;;;;;;;;;;12.10;99.90;;;;;;4995254;28;19963;-73
2022/06/07 09:16:48;;;;;;;;;;;12.10;99.90;;;;;;4995301;28;19910;-74
2022/06/07 09:19:17;;;;;;;;;;;12.10;99.90;;;;;;4995177;28;20048;-75
2022/06/07 09:21:45;;;;;;;;;;;12.00;99.90;;;;;;4994829;28;20380;-75
2022/06/07 09:24:13;;;;;;;;;;;12.00;99.90;;;;;;4995176;28;20361;-74
2022/06/07 09:26:41;;;;;;;;;;;12.00;99.90;;;;;;4994592;28;19941;-73
2022/06/07 09:29:15;;;;;;;;;;;11.90;99.90;;;;;;4994849;28;20284;-73
2022/06/07 09:31:43;;;;;;;;;;;11.90;99.90;;;;;;4994500;28;20381;-73
2022/06/07 09:34:21;;;;;;;;;;;11.90;99.90;;;;;;4994980;28;20446;-73
2022/06/07 09:36:50;;;;;;;;;;;11.90;99.90;;;;;;4994922;28;20475;-74
2022/06/07 09:39:25;;;;;;;;;;;11.90;99.90;;;;;;4994632;28;19917;-74
2022/06/07 09:42:00;;;;;;;;;;;11.90;99.90;;;;;;4994576;28;19994;-74
2022/06/07 09:44:38;;;;;;;;;;;11.90;99.90;;;;;;4994889;28;20387;-74
2022/06/07 09:47:13;;;;;;;;;;;11.80;99.90;;;;;;4995490;28;19949;-74
2022/06/07 09:49:51;;;;;;;;;;;11.80;99.90;;;;;;4994326;28;19990;-74
2022/06/07 09:52:27;;;;;;;;;;;11.80;99.90;;;;;;4869724;28;3603997;-73
2022/06/07 09:55:03;;;;;;;;;;;11.70;99.90;;;;;;4995662;28;19960;-74
2022/06/07 09:57:30;;;;;;;;;;;11.70;99.90;;;;;;4995136;28;19921;-74
2022/06/07 09:59:57;;;;;;;;;;;11.70;99.90;;;;;;4995421;28;19945;-75
2022/06/07 10:02:42;;;;;;;;;;;11.60;99.90;;;;;;4995627;28;20020;-74
2022/06/07 10:05:15;;;;;;;;;;;11.60;99.90;;;;;;4995530;28;20345;-74
2022/06/07 10:08:00;;;;;;;;;;;11.70;99.90;;;;;;4995237;28;19917;-74
2022/06/07 10:10:44;;;;;;;;;;;11.60;99.90;;;;;;4995437;28;20315;-74
2022/06/07 10:13:13;;;;;;;;;;;11.60;99.90;;;;;;4995487;28;19990;-74
2022/06/07 10:15:50;;;;;;;;;;;11.60;99.90;;;;;;4995165;28;20357;-74
2022/06/07 10:18:26;;;;;;;;;;;11.50;99.90;;;;;;4995195;28;19910;-74
2022/06/07 10:21:10;;;;;;;;;;;11.40;99.90;;;;;;4995311;28;19980;-74
2022/06/07 10:23:59;;;;;;;;;;;11.40;99.90;;;;;;4994260;28;19924;-73
2022/06/07 10:26:40;;;;;;;;;;;11.40;99.90;;;;;;4995065;28;20328;-74
2022/06/07 10:29:45;;;;;;;;;;;11.30;99.90;;;;;;4993023;28;19916;-73
2022/06/07 10:32:12;;;;;;;;;;;11.30;99.90;;;;;;4990086;28;20324;-76
2022/06/07 10:34:41;;;;;;;;;;;11.30;99.90;;;;;;4989923;28;19909;-75
2022/06/07 10:37:08;;;;;;;;;;;11.20;99.90;;;;;;4974472;28;20283;-73
2022/06/07 10:39:53;;;;;;;;;;;11.20;99.90;;;;;;4992638;28;19914;-74
2022/06/07 10:42:30;;;;;;;;;;;11.20;99.90;;;;;;4991876;28;19918;-74
2022/06/07 10:45:15;;;;;;;;;;;11.20;99.90;;;;;;4992861;28;19913;-76
2022/06/07 10:47:47;;;;;;;;;;;11.20;99.90;;;;;;4992427;28;20417;-76
2022/06/07 10:50:19;;;;;;;;;;;11.20;99.90;;;;;;4992157;28;20380;-74
2022/06/07 10:52:52;;;;;;;;;;;11.30;99.90;;;;;;4992377;28;19922;-75
2022/06/07 10:55:25;;;;;;;;;;;11.20;99.90;;;;;;4992084;28;19914;-76
2022/06/07 10:57:52;;;;;;;;;;;11.20;99.90;;;;;;4992330;28;19909;-76
2022/06/07 11:00:37;;;;;;;;;;;11.20;99.90;;;;;;4992433;28;19914;-76
2022/06/07 11:03:23;;;;;;;;;;;11.20;99.90;;;;;;4992481;28;19922;-76
2022/06/07 11:11:43;;;;;;;;;;;11.10;99.90;;;;;;4991872;28;19972;-74
2022/06/07 11:14:21;;;;;;;;;;;11.00;99.90;;;;;;4992311;28;19956;-74
2022/06/07 11:16:50;;;;;;;;;;;11.00;99.90;;;;;;4992239;28;19920;-76
2022/06/07 11:19:17;;;;;;;;;;;11.00;99.90;;;;;;4992199;28;19913;-76
2022/06/07 11:21:47;;;;;;;;;;;11.00;99.90;;;;;;4991244;28;19917;-76
2022/06/07 11:24:19;;;;;;;;;;;11.00;99.90;;;;;;4991592;28;19958;-77
2022/06/07 11:26:46;;;;;;;;;;;11.00;99.90;;;;;;4991920;28;20456;-75
2022/06/07 11:29:18;;;;;;;;;;;11.00;99.90;;;;;;4992142;28;19977;-76
2022/06/07 11:31:46;;;;;;;;;;;11.00;99.90;;;;;;4991744;28;19920;-76
2022/06/07 11:34:19;;;;;;;;;;;11.00;99.90;;;;;;4991755;28;19909;-76
2022/06/07 11:36:46;;;;;;;;;;;10.90;99.90;;;;;;4991981;28;19910;-76
2022/06/07 11:39:19;;;;;;;;;;;10.90;99.90;;;;;;4991424;28;19910;-75
2022/06/07 11:41:47;;;;;;;;;;;10.80;99.90;;;;;;4991516;28;19914;-76
2022/06/07 11:44:17;;;;;;;;;;;10.80;99.90;;;;;;4992015;28;19914;-76
2022/06/07 11:46:57;;;;;;;;;;;10.80;99.90;;;;;;4991530;28;19921;-76
2022/06/07 11:49:24;;;;;;;;;;;10.80;99.90;;;;;;4991572;28;20387;-76
2022/06/07 11:51:53;;;;;;;;;;;10.80;99.90;;;;;;4993495;28;19949;-76
2022/06/07 11:54:28;;;;;;;;;;;10.80;99.90;;;;;;4993318;28;19949;-76
2022/06/07 11:57:02;;;;;;;;;;;10.70;99.90;;;;;;4993829;28;19916;-76
2022/06/07 11:59:32;;;;;;;;;;;10.70;99.90;;;;;;4993966;28;19910;-76
2022/06/07 12:02:02;;;;;;;;;;;10.70;99.90;;;;;;4993837;28;19925;-76
2022/06/07 12:04:32;;;;;;;;;;;10.80;99.90;;;;;;4993841;28;20008;-76
2022/06/07 12:07:05;;;;;;;;;;;10.70;99.90;;;;;;4993969;28;20008;-76
2022/06/07 12:09:34;;;;;;;;;;;10.80;99.90;;;;;;4993224;28;20262;-77
2022/06/07 12:12:10;;;;;;;;;;;10.80;99.90;;;;;;4993687;28;19925;-77
2022/06/07 12:14:44;;;;;;;;;;;10.80;99.90;;;;;;4993809;28;19910;-77
2022/06/07 12:17:24;;;;;;;;;;;10.80;99.90;;;;;;4993825;28;19917;-76
2022/06/07 12:19:51;;;;;;;;;;;10.80;99.90;;;;;;4993442;28;20323;-76
2022/06/07 12:22:19;;;;;;;;;;;10.80;99.90;;;;;;4992913;28;19963;-74
2022/06/07 12:25:00;;;;;;;;;;;10.80;99.90;;;;;;4993548;28;19910;-76
2022/06/07 12:27:31;;;;;;;;;;;10.90;99.90;;;;;;4993478;28;20327;-76
2022/06/07 12:30:04;;;;;;;;;;;10.80;99.90;;;;;;4993503;28;19910;-75
2022/06/07 12:32:33;;;;;;;;;;;10.80;99.90;;;;;;4991443;28;20262;-75
2022/06/07 12:35:04;;;;;;;;;;;10.80;99.90;;;;;;4991519;28;19910;-76
2022/06/07 12:37:31;;;;;;;;;;;10.80;99.90;;;;;;4990744;28;19910;-75
2022/06/07 12:39:58;;;;;;;;;;;10.60;99.90;;;;;;4991274;28;20250;-75
2022/06/07 12:42:32;;;;;;;;;;;10.60;99.90;;;;;;4991281;28;19959;-74
2022/06/07 12:45:23;;;;;;;;;;;10.50;99.90;;;;;;4991194;28;20004;-77
2022/06/07 12:47:58;;;;;;;;;;;10.50;99.90;;;;;;4994845;28;19917;-76
2022/06/07 12:50:31;;;;;;;;;;;10.50;99.90;;;;;;4994854;28;19910;-76
2022/06/07 12:52:58;;;;;;;;;;;10.50;99.90;;;;;;4994060;28;19972;-75
2022/06/07 12:55:38;;;;;;;;;;;10.50;99.90;;;;;;4994554;28;19910;-75
2022/06/07 12:58:14;;;;;;;;;;;10.50;99.90;;;;;;4994514;28;19910;-74
2022/06/07 13:00:43;;;;;;;;;;;10.40;99.90;;;;;;4994685;28;20341;-73
2022/06/07 13:03:20;;;;;;;;;;;10.30;99.90;;;;;;4994434;28;19921;-75
2022/06/07 13:05:51;;;;;;;;;;;10.30;99.90;;;;;;4994456;28;19917;-75
2022/06/07 13:08:22;;;;;;;;;;;10.20;99.90;;;;;;4994115;28;19960;-76
2022/06/07 13:10:48;;;;;;;;;;;10.20;99.90;;;;;;4994527;28;20246;-76
2022/06/07 13:13:27;;;;;;;;;;;10.10;99.90;;;;;;4994490;28;19953;-75
2022/06/07 13:16:01;;;;;;;;;;;10.10;99.90;;;;;;4994264;28;19956;-74
2022/06/07 13:18:33;;;;;;;;;;;10.10;99.90;;;;;;4994452;28;19909;-75
2022/06/07 13:21:15;;;;;;;;;;;10.10;99.90;;;;;;4994254;28;20369;-75
2022/06/07 13:23:42;;;;;;;;;;;10.00;99.90;;;;;;4993242;28;19917;-76
2022/06/07 13:26:11;;;;;;;;;;;10.00;99.90;;;;;;4994164;28;20297;-75
2022/06/07 13:28:38;;;;;;;;;;;10.00;99.90;;;;;;4994218;28;20312;-76
2022/06/07 13:31:25;;;;;;;;;;;10.00;99.90;;;;;;4994242;28;19910;-75
2022/06/07 13:34:02;;;;;;;;;;;10.00;99.90;;;;;;4993920;28;19921;-75
2022/06/07 13:36:42;;;;;;;;;;;10.00;99.90;;;;;;4993804;28;19909;-73
2022/06/07 13:39:22;;;;;;;;;;;10.00;99.90;;;;;;4993777;28;20289;-74
2022/06/07 13:41:52;;;;;;;;;;;10.10;99.90;;;;;;5003435;28;20024;-75
2022/06/07 13:44:36;;;;;;;;;;;10.00;99.90;;;;;;5013128;28;19917;-74
2022/06/07 13:47:04;;;;;;;;;;;10.00;99.90;;;;;;4995863;28;20276;-73
2022/06/07 13:55:26;;;;;;;;;;;10.00;99.90;;;;;;5013677;28;19939;-74
2022/06/07 13:57:53;;;;;;;;;;;10.00;99.90;;;;;;5011994;28;20307;-73
2022/06/07 14:00:20;;;;;;;;;;;10.00;99.90;;;;;;5013202;28;20439;-73
2022/06/07 14:02:47;;;;;;;;;;;10.00;99.90;;;;;;5012871;28;19922;-73
2022/06/07 14:05:15;;;;;;;;;;;10.00;99.90;;;;;;5013055;28;19959;-74
2022/06/07 14:07:41;;;;;;;;;;;10.00;99.90;;;;;;5012908;28;20348;-75
2022/06/07 14:10:15;;;;;;;;;;;10.10;99.90;;;;;;5012842;28;19910;-75
2022/06/07 14:12:41;;;;;;;;;;;10.10;99.90;;;;;;5013012;28;19909;-76
2022/06/07 14:15:08;;;;;;;;;;;10.10;99.90;;;;;;5011681;28;19914;-74
2022/06/07 14:17:35;;;;;;;;;;;10.10;99.90;;;;;;5012386;28;19936;-74
2022/06/07 14:20:02;;;;;;;;;;;10.10;99.90;;;;;;5012816;28;19910;-74
2022/06/07 14:22:31;;;;;;;;;;;10.20;99.90;;;;;;5012675;28;20589;-75
2022/06/07 14:24:58;;;;;;;;;;;10.10;99.90;;;;;;5012540;28;19910;-75
2022/06/07 14:27:25;;;;;;;;;;;10.10;99.90;;;;;;5012567;28;19956;-76
2022/06/07 14:29:55;;;;;;;;;;;10.10;99.90;;;;;;5012164;28;20395;-75
2022/06/07 14:32:27;;;;;;;;;;;10.10;99.90;;;;;;5012490;28;19914;-74
2022/06/07 14:34:56;;;;;;;;;;;10.00;99.90;;;;;;5012455;28;19921;-76
2022/06/07 14:37:24;;;;;;;;;;;10.10;99.90;;;;;;5012641;28;19917;-75
2022/06/07 14:39:51;;;;;;;;;;;10.10;99.90;;;;;;5012088;28;19936;-75
2022/06/07 14:42:18;;;;;;;;;;;10.10;99.90;;;;;;5011951;28;19979;-75
2022/06/07 14:44:45;;;;;;;;;;;10.00;99.90;;;;;;5012382;28;19916;-75
2022/06/07 14:47:17;;;;;;;;;;;10.10;99.90;;;;;;5012315;28;19909;-75
2022/06/07 14:49:45;;;;;;;;;;;10.10;99.90;;;;;;5012229;28;19921;-75
2022/06/07 14:52:15;;;;;;;;;;;10.10;99.90;;;;;;5012188;28;19922;-76
2022/06/07 14:54:42;;;;;;;;;;;10.10;99.90;;;;;;5012164;28;19913;-75
2022/06/07 14:57:35;;;;;;;;;;;10.00;99.90;;;;;;5011787;28;19913;-76
2022/06/07 15:00:02;;;;;;;;;;;10.00;99.90;;;;;;5011810;28;19914;-75
2022/06/07 15:02:34;;;;;;;;;;;10.10;99.90;;;;;;5011987;28;19975;-74